sensor_id;sensor_type;location;lat;lon;timestamp;P1;durP1;ratioP1;P2;durP2;ratioP2
20073;SDS011;10197;54.282;10.078;2022-07-06T00:02:26;4.68;;;1.83;;
20073;SDS011;10197;54.282;10.078;2022-07-06T00:04:52;5.63;;;2.05;;
20073;SDS011;10197;54.282;10.078;2022-07-06T00:07:19;3.22;;;1.80;;
20073;SDS011;10197;54.282;10.078;2022-07-06T00:09:49;6.20;;;2.20;;
20073;SDS011;10197;54.282;10.078;2022-07-06T00:12:19;5.45;;;2.50;;
20073;SDS011;10197;54.282;10.078;2022-07-06T00:14:47;5.53;;;2.00;;
20073;SDS011;10197;54.282;10.078;2022-07-06T00:17:15;6.32;;;2.22;;
20073;SDS011;10197;54.282;10.078;2022-07-06T00:19:43;3.70;;;2.08;;
20073;SDS011;10197;54.282;10.078;2022-07-06T00:22:10;4.57;;;1.80;;
20073;SDS011;10197;54.282;10.078;2022-07-06T00:24:37;5.80;;;1.67;;
20073;SDS011;10197;54.282;10.078;2022-07-06T00:27:06;3.70;;;1.77;;
20073;SDS011;10197;54.282;10.078;2022-07-06T00:29:33;5.40;;;2.00;;
20073;SDS011;10197;54.282;10.078;2022-07-06T00:31:59;5.60;;;2.05;;
20073;SDS011;10197;54.282;10.078;2022-07-06T00:34:26;4.82;;;2.08;;
20073;SDS011;10197;54.282;10.078;2022-07-06T00:36:54;6.80;;;1.80;;
20073;SDS011;10197;54.282;10.078;2022-07-06T00:39:21;3.28;;;1.67;;
20073;SDS011;10197;54.282;10.078;2022-07-06T00:41:54;5.10;;;2.00;;
20073;SDS011;10197;54.282;10.078;2022-07-06T00:44:23;4.53;;;1.80;;
20073;SDS011;10197;54.282;10.078;2022-07-06T00:46:50;3.17;;;1.65;;
20073;SDS011;10197;54.282;10.078;2022-07-06T00:49:17;3.33;;;1.75;;
20073;SDS011;10197;54.282;10.078;2022-07-06T00:51:58;4.32;;;1.92;;
20073;SDS011;10197;54.282;10.078;2022-07-06T00:54:26;4.93;;;1.80;;
20073;SDS011;10197;54.282;10.078;2022-07-06T00:56:53;5.00;;;1.80;;
20073;SDS011;10197;54.282;10.078;2022-07-06T00:59:21;6.47;;;1.85;;
20073;SDS011;10197;54.282;10.078;2022-07-06T01:01:50;4.10;;;1.98;;
20073;SDS011;10197;54.282;10.078;2022-07-06T01:04:17;4.10;;;1.80;;
20073;SDS011;10197;54.282;10.078;2022-07-06T01:06:44;5.60;;;1.70;;
20073;SDS011;10197;54.282;10.078;2022-07-06T01:09:12;5.85;;;2.05;;
20073;SDS011;10197;54.282;10.078;2022-07-06T01:11:39;3.22;;;1.60;;
20073;SDS011;10197;54.282;10.078;2022-07-06T01:14:07;5.28;;;2.10;;
20073;SDS011;10197;54.282;10.078;2022-07-06T01:16:35;4.03;;;1.75;;
20073;SDS011;10197;54.282;10.078;2022-07-06T01:19:04;6.15;;;2.40;;
20073;SDS011;10197;54.282;10.078;2022-07-06T01:21:32;5.20;;;1.80;;
20073;SDS011;10197;54.282;10.078;2022-07-06T01:24:00;4.85;;;1.92;;
20073;SDS011;10197;54.282;10.078;2022-07-06T01:26:27;4.13;;;1.92;;
20073;SDS011;10197;54.282;10.078;2022-07-06T01:28:54;2.33;;;1.50;;
20073;SDS011;10197;54.282;10.078;2022-07-06T01:31:23;3.28;;;1.70;;
20073;SDS011;10197;54.282;10.078;2022-07-06T01:33:51;6.60;;;1.80;;
20073;SDS011;10197;54.282;10.078;2022-07-06T01:36:19;5.75;;;1.67;;
20073;SDS011;10197;54.282;10.078;2022-07-06T01:38:48;6.43;;;2.13;;
20073;SDS011;10197;54.282;10.078;2022-07-06T01:41:16;5.78;;;2.10;;
20073;SDS011;10197;54.282;10.078;2022-07-06T01:43:44;8.00;;;2.00;;
20073;SDS011;10197;54.282;10.078;2022-07-06T01:46:11;5.15;;;1.77;;
20073;SDS011;10197;54.282;10.078;2022-07-06T01:48:40;3.65;;;1.80;;
20073;SDS011;10197;54.282;10.078;2022-07-06T01:51:07;3.40;;;1.42;;
20073;SDS011;10197;54.282;10.078;2022-07-06T01:53:37;6.60;;;2.10;;
20073;SDS011;10197;54.282;10.078;2022-07-06T01:56:08;2.97;;;1.67;;
20073;SDS011;10197;54.282;10.078;2022-07-06T01:58:36;4.68;;;1.80;;
20073;SDS011;10197;54.282;10.078;2022-07-06T02:01:07;5.35;;;1.60;;
20073;SDS011;10197;54.282;10.078;2022-07-06T02:03:35;4.88;;;1.60;;
20073;SDS011;10197;54.282;10.078;2022-07-06T02:06:03;6.05;;;2.00;;
20073;SDS011;10197;54.282;10.078;2022-07-06T02:08:31;7.55;;;1.98;;
20073;SDS011;10197;54.282;10.078;2022-07-06T02:10:58;6.55;;;1.70;;
20073;SDS011;10197;54.282;10.078;2022-07-06T02:13:27;4.90;;;1.88;;
20073;SDS011;10197;54.282;10.078;2022-07-06T02:15:54;2.88;;;1.70;;
20073;SDS011;10197;54.282;10.078;2022-07-06T02:18:22;3.67;;;2.03;;
20073;SDS011;10197;54.282;10.078;2022-07-06T02:20:49;5.10;;;1.90;;
20073;SDS011;10197;54.282;10.078;2022-07-06T02:23:17;5.55;;;1.65;;
20073;SDS011;10197;54.282;10.078;2022-07-06T02:25:45;3.83;;;1.85;;
20073;SDS011;10197;54.282;10.078;2022-07-06T02:28:12;7.90;;;1.90;;
20073;SDS011;10197;54.282;10.078;2022-07-06T02:30:42;3.85;;;1.67;;
20073;SDS011;10197;54.282;10.078;2022-07-06T02:33:10;6.20;;;1.92;;
20073;SDS011;10197;54.282;10.078;2022-07-06T02:35:39;3.83;;;1.70;;
20073;SDS011;10197;54.282;10.078;2022-07-06T02:38:09;4.50;;;2.10;;
20073;SDS011;10197;54.282;10.078;2022-07-06T02:40:37;2.80;;;1.48;;
20073;SDS011;10197;54.282;10.078;2022-07-06T02:43:05;4.03;;;1.85;;
20073;SDS011;10197;54.282;10.078;2022-07-06T02:45:33;2.58;;;1.40;;
20073;SDS011;10197;54.282;10.078;2022-07-06T02:48:03;5.18;;;1.77;;
20073;SDS011;10197;54.282;10.078;2022-07-06T02:50:32;4.72;;;1.77;;
20073;SDS011;10197;54.282;10.078;2022-07-06T02:52:59;3.83;;;1.45;;
20073;SDS011;10197;54.282;10.078;2022-07-06T02:55:27;5.68;;;2.03;;
20073;SDS011;10197;54.282;10.078;2022-07-06T02:57:54;4.57;;;1.60;;
20073;SDS011;10197;54.282;10.078;2022-07-06T03:00:22;2.97;;;1.55;;
20073;SDS011;10197;54.282;10.078;2022-07-06T03:02:50;5.95;;;1.73;;
20073;SDS011;10197;54.282;10.078;2022-07-06T03:05:19;3.28;;;1.50;;
20073;SDS011;10197;54.282;10.078;2022-07-06T03:07:46;2.88;;;1.65;;
20073;SDS011;10197;54.282;10.078;2022-07-06T03:10:13;3.22;;;1.55;;
20073;SDS011;10197;54.282;10.078;2022-07-06T03:12:40;2.67;;;1.40;;
20073;SDS011;10197;54.282;10.078;2022-07-06T03:15:07;3.42;;;1.70;;
20073;SDS011;10197;54.282;10.078;2022-07-06T03:17:37;3.47;;;1.50;;
20073;SDS011;10197;54.282;10.078;2022-07-06T03:20:05;7.10;;;1.83;;
20073;SDS011;10197;54.282;10.078;2022-07-06T03:22:34;3.33;;;1.42;;
20073;SDS011;10197;54.282;10.078;2022-07-06T03:25:03;2.30;;;1.52;;
20073;SDS011;10197;54.282;10.078;2022-07-06T03:27:31;4.88;;;1.70;;
20073;SDS011;10197;54.282;10.078;2022-07-06T03:29:59;4.25;;;1.60;;
20073;SDS011;10197;54.282;10.078;2022-07-06T03:32:26;2.78;;;1.55;;
20073;SDS011;10197;54.282;10.078;2022-07-06T03:34:53;5.38;;;1.52;;
20073;SDS011;10197;54.282;10.078;2022-07-06T03:37:21;4.88;;;1.55;;
20073;SDS011;10197;54.282;10.078;2022-07-06T03:39:49;6.28;;;2.80;;
20073;SDS011;10197;54.282;10.078;2022-07-06T03:42:17;4.93;;;1.77;;
20073;SDS011;10197;54.282;10.078;2022-07-06T03:44:44;4.65;;;1.80;;
20073;SDS011;10197;54.282;10.078;2022-07-06T03:47:12;3.35;;;1.45;;
20073;SDS011;10197;54.282;10.078;2022-07-06T03:49:39;6.13;;;1.80;;
20073;SDS011;10197;54.282;10.078;2022-07-06T03:52:08;5.90;;;2.30;;
20073;SDS011;10197;54.282;10.078;2022-07-06T03:54:41;5.07;;;1.67;;
20073;SDS011;10197;54.282;10.078;2022-07-06T03:57:12;8.45;;;2.17;;
20073;SDS011;10197;54.282;10.078;2022-07-06T03:59:39;5.47;;;1.85;;
20073;SDS011;10197;54.282;10.078;2022-07-06T04:02:06;3.28;;;1.80;;
20073;SDS011;10197;54.282;10.078;2022-07-06T04:04:34;2.60;;;1.63;;
20073;SDS011;10197;54.282;10.078;2022-07-06T04:07:03;7.15;;;1.98;;
20073;SDS011;10197;54.282;10.078;2022-07-06T04:09:31;3.50;;;1.60;;
20073;SDS011;10197;54.282;10.078;2022-07-06T04:11:58;4.70;;;1.70;;
20073;SDS011;10197;54.282;10.078;2022-07-06T04:14:27;5.32;;;1.90;;
20073;SDS011;10197;54.282;10.078;2022-07-06T04:16:55;4.95;;;1.75;;
20073;SDS011;10197;54.282;10.078;2022-07-06T04:19:22;3.38;;;1.77;;
20073;SDS011;10197;54.282;10.078;2022-07-06T04:21:49;4.82;;;1.58;;
20073;SDS011;10197;54.282;10.078;2022-07-06T04:24:16;4.88;;;2.00;;
20073;SDS011;10197;54.282;10.078;2022-07-06T04:26:43;5.72;;;1.65;;
20073;SDS011;10197;54.282;10.078;2022-07-06T04:29:10;6.50;;;1.92;;
20073;SDS011;10197;54.282;10.078;2022-07-06T04:31:39;4.18;;;1.40;;
20073;SDS011;10197;54.282;10.078;2022-07-06T04:34:06;3.97;;;1.73;;
20073;SDS011;10197;54.282;10.078;2022-07-06T04:36:32;6.80;;;1.70;;
20073;SDS011;10197;54.282;10.078;2022-07-06T04:38:59;2.92;;;1.55;;
20073;SDS011;10197;54.282;10.078;2022-07-06T04:41:27;4.38;;;1.63;;
20073;SDS011;10197;54.282;10.078;2022-07-06T04:43:54;7.78;;;2.78;;
20073;SDS011;10197;54.282;10.078;2022-07-06T04:46:21;11.73;;;2.38;;
20073;SDS011;10197;54.282;10.078;2022-07-06T04:48:52;5.07;;;1.95;;
20073;SDS011;10197;54.282;10.078;2022-07-06T04:51:25;5.18;;;1.90;;
20073;SDS011;10197;54.282;10.078;2022-07-06T04:53:52;3.90;;;1.55;;
20073;SDS011;10197;54.282;10.078;2022-07-06T04:56:20;6.43;;;1.75;;
20073;SDS011;10197;54.282;10.078;2022-07-06T04:58:48;5.85;;;1.90;;
20073;SDS011;10197;54.282;10.078;2022-07-06T05:01:18;3.85;;;1.67;;
20073;SDS011;10197;54.282;10.078;2022-07-06T05:03:45;6.88;;;1.70;;
20073;SDS011;10197;54.282;10.078;2022-07-06T05:06:15;5.40;;;1.70;;
20073;SDS011;10197;54.282;10.078;2022-07-06T05:08:44;6.10;;;1.77;;
20073;SDS011;10197;54.282;10.078;2022-07-06T05:11:11;10.15;;;2.15;;
20073;SDS011;10197;54.282;10.078;2022-07-06T05:13:39;3.80;;;1.40;;
20073;SDS011;10197;54.282;10.078;2022-07-06T05:16:06;2.13;;;1.50;;
20073;SDS011;10197;54.282;10.078;2022-07-06T05:18:34;4.22;;;1.48;;
20073;SDS011;10197;54.282;10.078;2022-07-06T05:21:03;3.63;;;1.45;;
20073;SDS011;10197;54.282;10.078;2022-07-06T05:23:32;3.65;;;1.40;;
20073;SDS011;10197;54.282;10.078;2022-07-06T05:25:59;4.05;;;1.58;;
20073;SDS011;10197;54.282;10.078;2022-07-06T05:28:26;2.67;;;1.30;;
20073;SDS011;10197;54.282;10.078;2022-07-06T05:30:53;3.60;;;1.35;;
20073;SDS011;10197;54.282;10.078;2022-07-06T05:33:21;1.75;;;1.10;;
20073;SDS011;10197;54.282;10.078;2022-07-06T05:35:48;2.60;;;1.17;;
20073;SDS011;10197;54.282;10.078;2022-07-06T05:38:17;4.03;;;1.50;;
20073;SDS011;10197;54.282;10.078;2022-07-06T05:40:46;3.42;;;1.20;;
20073;SDS011;10197;54.282;10.078;2022-07-06T05:43:13;2.80;;;1.00;;
20073;SDS011;10197;54.282;10.078;2022-07-06T05:45:41;2.45;;;1.13;;
20073;SDS011;10197;54.282;10.078;2022-07-06T05:48:09;4.35;;;1.42;;
20073;SDS011;10197;54.282;10.078;2022-07-06T05:50:54;4.93;;;1.33;;
20073;SDS011;10197;54.282;10.078;2022-07-06T05:53:21;2.72;;;1.17;;
20073;SDS011;10197;54.282;10.078;2022-07-06T05:55:53;2.85;;;1.20;;
20073;SDS011;10197;54.282;10.078;2022-07-06T05:58:20;4.47;;;1.30;;
20073;SDS011;10197;54.282;10.078;2022-07-06T06:00:49;2.00;;;1.00;;
20073;SDS011;10197;54.282;10.078;2022-07-06T06:03:18;3.47;;;1.15;;
20073;SDS011;10197;54.282;10.078;2022-07-06T06:05:47;3.63;;;1.52;;
20073;SDS011;10197;54.282;10.078;2022-07-06T06:08:17;2.05;;;1.10;;
20073;SDS011;10197;54.282;10.078;2022-07-06T06:10:45;8.35;;;1.48;;
20073;SDS011;10197;54.282;10.078;2022-07-06T06:13:17;7.30;;;1.83;;
20073;SDS011;10197;54.282;10.078;2022-07-06T06:15:44;3.35;;;1.38;;
20073;SDS011;10197;54.282;10.078;2022-07-06T06:18:13;5.35;;;1.60;;
20073;SDS011;10197;54.282;10.078;2022-07-06T06:20:42;2.45;;;1.20;;
20073;SDS011;10197;54.282;10.078;2022-07-06T06:23:09;1.70;;;1.10;;
20073;SDS011;10197;54.282;10.078;2022-07-06T06:25:37;2.13;;;1.05;;
20073;SDS011;10197;54.282;10.078;2022-07-06T06:28:05;2.35;;;1.10;;
20073;SDS011;10197;54.282;10.078;2022-07-06T06:30:34;2.20;;;1.30;;
20073;SDS011;10197;54.282;10.078;2022-07-06T06:33:05;3.17;;;1.00;;
20073;SDS011;10197;54.282;10.078;2022-07-06T06:35:33;5.18;;;1.20;;
20073;SDS011;10197;54.282;10.078;2022-07-06T06:38:00;3.30;;;1.10;;
20073;SDS011;10197;54.282;10.078;2022-07-06T06:40:27;1.42;;;1.08;;
20073;SDS011;10197;54.282;10.078;2022-07-06T06:42:54;2.65;;;1.27;;
20073;SDS011;10197;54.282;10.078;2022-07-06T06:45:22;4.53;;;1.30;;
20073;SDS011;10197;54.282;10.078;2022-07-06T06:47:51;2.50;;;0.95;;
20073;SDS011;10197;54.282;10.078;2022-07-06T06:50:18;3.97;;;1.30;;
20073;SDS011;10197;54.282;10.078;2022-07-06T06:52:45;2.05;;;0.93;;
20073;SDS011;10197;54.282;10.078;2022-07-06T06:55:11;3.45;;;1.10;;
20073;SDS011;10197;54.282;10.078;2022-07-06T06:57:38;6.40;;;1.42;;
20073;SDS011;10197;54.282;10.078;2022-07-06T07:00:05;2.45;;;1.10;;
20073;SDS011;10197;54.282;10.078;2022-07-06T07:02:35;1.55;;;1.10;;
20073;SDS011;10197;54.282;10.078;2022-07-06T07:05:04;1.73;;;1.02;;
20073;SDS011;10197;54.282;10.078;2022-07-06T07:07:32;3.47;;;1.02;;
20073;SDS011;10197;54.282;10.078;2022-07-06T07:09:59;3.50;;;1.10;;
20073;SDS011;10197;54.282;10.078;2022-07-06T07:12:26;5.25;;;1.35;;
20073;SDS011;10197;54.282;10.078;2022-07-06T07:14:53;4.93;;;1.17;;
20073;SDS011;10197;54.282;10.078;2022-07-06T07:17:20;4.82;;;1.38;;
20073;SDS011;10197;54.282;10.078;2022-07-06T07:19:47;2.35;;;1.33;;
20073;SDS011;10197;54.282;10.078;2022-07-06T07:22:15;4.53;;;1.20;;
20073;SDS011;10197;54.282;10.078;2022-07-06T07:24:42;3.25;;;1.20;;
20073;SDS011;10197;54.282;10.078;2022-07-06T07:27:08;2.60;;;1.00;;
20073;SDS011;10197;54.282;10.078;2022-07-06T07:29:35;4.95;;;1.23;;
20073;SDS011;10197;54.282;10.078;2022-07-06T07:32:03;3.67;;;1.25;;
20073;SDS011;10197;54.282;10.078;2022-07-06T07:34:33;5.80;;;1.38;;
20073;SDS011;10197;54.282;10.078;2022-07-06T07:37:00;2.90;;;1.15;;
20073;SDS011;10197;54.282;10.078;2022-07-06T07:39:28;3.78;;;1.30;;
20073;SDS011;10197;54.282;10.078;2022-07-06T07:41:58;2.45;;;1.05;;
20073;SDS011;10197;54.282;10.078;2022-07-06T07:44:25;5.60;;;1.20;;
20073;SDS011;10197;54.282;10.078;2022-07-06T07:46:54;3.85;;;1.20;;
20073;SDS011;10197;54.282;10.078;2022-07-06T07:49:21;4.05;;;1.20;;
20073;SDS011;10197;54.282;10.078;2022-07-06T07:51:48;5.55;;;1.40;;
20073;SDS011;10197;54.282;10.078;2022-07-06T07:54:14;4.30;;;1.10;;
20073;SDS011;10197;54.282;10.078;2022-07-06T07:56:46;3.67;;;1.08;;
20073;SDS011;10197;54.282;10.078;2022-07-06T07:59:12;2.50;;;1.27;;
20073;SDS011;10197;54.282;10.078;2022-07-06T08:01:41;5.10;;;1.63;;
20073;SDS011;10197;54.282;10.078;2022-07-06T08:04:07;4.90;;;1.25;;
20073;SDS011;10197;54.282;10.078;2022-07-06T08:06:35;2.75;;;1.20;;
20073;SDS011;10197;54.282;10.078;2022-07-06T08:09:02;2.38;;;1.42;;
20073;SDS011;10197;54.282;10.078;2022-07-06T08:11:30;6.18;;;1.13;;
20073;SDS011;10197;54.282;10.078;2022-07-06T08:13:58;3.03;;;1.00;;
20073;SDS011;10197;54.282;10.078;2022-07-06T08:16:25;3.72;;;1.27;;
20073;SDS011;10197;54.282;10.078;2022-07-06T08:18:52;4.60;;;1.20;;
20073;SDS011;10197;54.282;10.078;2022-07-06T08:21:19;5.40;;;1.35;;
20073;SDS011;10197;54.282;10.078;2022-07-06T08:23:46;3.90;;;1.30;;
20073;SDS011;10197;54.282;10.078;2022-07-06T08:26:14;2.10;;;1.17;;
20073;SDS011;10197;54.282;10.078;2022-07-06T08:28:40;3.63;;;1.30;;
20073;SDS011;10197;54.282;10.078;2022-07-06T08:31:12;2.88;;;1.40;;
20073;SDS011;10197;54.282;10.078;2022-07-06T08:33:39;3.58;;;1.20;;
20073;SDS011;10197;54.282;10.078;2022-07-06T08:36:06;3.78;;;1.20;;
20073;SDS011;10197;54.282;10.078;2022-07-06T08:38:33;4.15;;;1.40;;
20073;SDS011;10197;54.282;10.078;2022-07-06T08:41:00;9.50;;;1.60;;
20073;SDS011;10197;54.282;10.078;2022-07-06T08:43:29;7.25;;;1.52;;
20073;SDS011;10197;54.282;10.078;2022-07-06T08:45:56;5.32;;;1.30;;
20073;SDS011;10197;54.282;10.078;2022-07-06T08:48:24;4.65;;;1.10;;
20073;SDS011;10197;54.282;10.078;2022-07-06T08:50:51;3.25;;;1.27;;
20073;SDS011;10197;54.282;10.078;2022-07-06T08:53:19;2.35;;;1.00;;
20073;SDS011;10197;54.282;10.078;2022-07-06T08:55:47;4.18;;;1.30;;
20073;SDS011;10197;54.282;10.078;2022-07-06T08:58:14;5.07;;;1.40;;
20073;SDS011;10197;54.282;10.078;2022-07-06T09:00:41;2.75;;;1.10;;
20073;SDS011;10197;54.282;10.078;2022-07-06T09:03:10;3.10;;;1.13;;
20073;SDS011;10197;54.282;10.078;2022-07-06T09:05:40;4.22;;;1.27;;
20073;SDS011;10197;54.282;10.078;2022-07-06T09:08:08;2.60;;;1.50;;
20073;SDS011;10197;54.282;10.078;2022-07-06T09:10:35;2.90;;;1.05;;
20073;SDS011;10197;54.282;10.078;2022-07-06T09:13:02;3.08;;;1.15;;
20073;SDS011;10197;54.282;10.078;2022-07-06T09:15:30;3.70;;;1.10;;
20073;SDS011;10197;54.282;10.078;2022-07-06T09:17:57;3.17;;;1.02;;
20073;SDS011;10197;54.282;10.078;2022-07-06T09:20:24;5.53;;;1.30;;
20073;SDS011;10197;54.282;10.078;2022-07-06T09:22:55;1.90;;;1.00;;
20073;SDS011;10197;54.282;10.078;2022-07-06T09:25:24;3.33;;;1.10;;
20073;SDS011;10197;54.282;10.078;2022-07-06T09:27:51;3.85;;;1.30;;
20073;SDS011;10197;54.282;10.078;2022-07-06T09:30:21;3.85;;;1.00;;
20073;SDS011;10197;54.282;10.078;2022-07-06T09:32:48;1.98;;;0.93;;
20073;SDS011;10197;54.282;10.078;2022-07-06T09:35:19;3.95;;;1.00;;
20073;SDS011;10197;54.282;10.078;2022-07-06T09:37:47;3.55;;;1.17;;
20073;SDS011;10197;54.282;10.078;2022-07-06T09:40:18;3.40;;;0.93;;
20073;SDS011;10197;54.282;10.078;2022-07-06T09:42:45;3.22;;;1.10;;
20073;SDS011;10197;54.282;10.078;2022-07-06T09:45:12;4.40;;;1.40;;
20073;SDS011;10197;54.282;10.078;2022-07-06T09:47:39;5.30;;;1.48;;
20073;SDS011;10197;54.282;10.078;2022-07-06T09:50:15;3.58;;;1.10;;
20073;SDS011;10197;54.282;10.078;2022-07-06T09:52:52;4.55;;;1.00;;
20073;SDS011;10197;54.282;10.078;2022-07-06T09:55:21;4.50;;;1.42;;
20073;SDS011;10197;54.282;10.078;2022-07-06T09:57:51;3.47;;;1.23;;
20073;SDS011;10197;54.282;10.078;2022-07-06T10:00:20;4.07;;;0.95;;
20073;SDS011;10197;54.282;10.078;2022-07-06T10:02:47;1.70;;;1.00;;
20073;SDS011;10197;54.282;10.078;2022-07-06T10:05:15;3.95;;;1.48;;
20073;SDS011;10197;54.282;10.078;2022-07-06T10:07:43;3.97;;;1.23;;
20073;SDS011;10197;54.282;10.078;2022-07-06T10:10:11;4.28;;;1.73;;
20073;SDS011;10197;54.282;10.078;2022-07-06T10:12:39;3.00;;;1.27;;
20073;SDS011;10197;54.282;10.078;2022-07-06T10:15:08;4.95;;;1.70;;
20073;SDS011;10197;54.282;10.078;2022-07-06T10:17:36;5.93;;;1.35;;
20073;SDS011;10197;54.282;10.078;2022-07-06T10:20:03;4.55;;;1.23;;
20073;SDS011;10197;54.282;10.078;2022-07-06T10:22:31;4.20;;;1.20;;
20073;SDS011;10197;54.282;10.078;2022-07-06T10:24:59;1.85;;;1.20;;
20073;SDS011;10197;54.282;10.078;2022-07-06T10:27:26;6.05;;;1.23;;
20073;SDS011;10197;54.282;10.078;2022-07-06T10:29:54;2.40;;;1.10;;
20073;SDS011;10197;54.282;10.078;2022-07-06T10:32:21;2.08;;;1.13;;
20073;SDS011;10197;54.282;10.078;2022-07-06T10:34:49;3.42;;;1.02;;
20073;SDS011;10197;54.282;10.078;2022-07-06T10:37:21;6.15;;;1.23;;
20073;SDS011;10197;54.282;10.078;2022-07-06T10:39:50;2.30;;;1.00;;
20073;SDS011;10197;54.282;10.078;2022-07-06T10:42:46;3.75;;;1.20;;
20073;SDS011;10197;54.282;10.078;2022-07-06T10:48:18;3.47;;;0.90;;
20073;SDS011;10197;54.282;10.078;2022-07-06T10:50:47;3.40;;;1.17;;
20073;SDS011;10197;54.282;10.078;2022-07-06T10:53:23;2.53;;;1.00;;
20073;SDS011;10197;54.282;10.078;2022-07-06T10:55:51;3.47;;;1.13;;
20073;SDS011;10197;54.282;10.078;2022-07-06T10:58:34;5.15;;;1.20;;
20073;SDS011;10197;54.282;10.078;2022-07-06T11:01:03;3.65;;;0.90;;
20073;SDS011;10197;54.282;10.078;2022-07-06T11:03:32;2.40;;;1.20;;
20073;SDS011;10197;54.282;10.078;2022-07-06T11:06:01;2.35;;;0.98;;
20073;SDS011;10197;54.282;10.078;2022-07-06T11:11:25;3.28;;;1.05;;
20073;SDS011;10197;54.282;10.078;2022-07-06T11:13:58;3.08;;;1.02;;
20073;SDS011;10197;54.282;10.078;2022-07-06T11:16:28;2.10;;;0.73;;
20073;SDS011;10197;54.282;10.078;2022-07-06T11:19:03;1.77;;;1.00;;
20073;SDS011;10197;54.282;10.078;2022-07-06T11:21:35;5.18;;;1.00;;
20073;SDS011;10197;54.282;10.078;2022-07-06T11:24:04;2.60;;;0.95;;
20073;SDS011;10197;54.282;10.078;2022-07-06T11:26:33;2.97;;;1.38;;
20073;SDS011;10197;54.282;10.078;2022-07-06T11:29:02;6.55;;;1.80;;
20073;SDS011;10197;54.282;10.078;2022-07-06T11:31:31;5.05;;;1.60;;
20073;SDS011;10197;54.282;10.078;2022-07-06T11:34:00;3.03;;;1.00;;
20073;SDS011;10197;54.282;10.078;2022-07-06T11:36:27;2.05;;;1.23;;
20073;SDS011;10197;54.282;10.078;2022-07-06T11:38:54;2.28;;;1.20;;
20073;SDS011;10197;54.282;10.078;2022-07-06T11:41:20;3.55;;;1.13;;
20073;SDS011;10197;54.282;10.078;2022-07-06T11:43:47;3.28;;;1.05;;
20073;SDS011;10197;54.282;10.078;2022-07-06T11:46:20;1.40;;;0.90;;
20073;SDS011;10197;54.282;10.078;2022-07-06T11:48:49;2.80;;;1.10;;
20073;SDS011;10197;54.282;10.078;2022-07-06T11:51:17;3.17;;;0.88;;
20073;SDS011;10197;54.282;10.078;2022-07-06T11:53:44;4.50;;;1.00;;
20073;SDS011;10197;54.282;10.078;2022-07-06T11:56:12;2.35;;;1.00;;
20073;SDS011;10197;54.282;10.078;2022-07-06T11:58:41;3.38;;;0.90;;
20073;SDS011;10197;54.282;10.078;2022-07-06T12:01:09;3.25;;;0.88;;
20073;SDS011;10197;54.282;10.078;2022-07-06T12:03:37;2.20;;;0.68;;
20073;SDS011;10197;54.282;10.078;2022-07-06T12:06:06;1.60;;;0.90;;
20073;SDS011;10197;54.282;10.078;2022-07-06T12:08:43;3.78;;;0.90;;
20073;SDS011;10197;54.282;10.078;2022-07-06T12:11:10;3.22;;;0.95;;
20073;SDS011;10197;54.282;10.078;2022-07-06T12:13:43;2.10;;;0.73;;
20073;SDS011;10197;54.282;10.078;2022-07-06T12:16:11;3.22;;;0.80;;
20073;SDS011;10197;54.282;10.078;2022-07-06T12:18:38;3.60;;;1.30;;
20073;SDS011;10197;54.282;10.078;2022-07-06T12:21:08;6.43;;;1.48;;
20073;SDS011;10197;54.282;10.078;2022-07-06T12:23:39;3.63;;;1.00;;
20073;SDS011;10197;54.282;10.078;2022-07-06T12:26:07;2.50;;;0.70;;
20073;SDS011;10197;54.282;10.078;2022-07-06T12:28:34;1.45;;;0.68;;
20073;SDS011;10197;54.282;10.078;2022-07-06T12:31:01;2.15;;;0.70;;
20073;SDS011;10197;54.282;10.078;2022-07-06T12:33:29;2.78;;;0.80;;
20073;SDS011;10197;54.282;10.078;2022-07-06T12:35:56;1.90;;;0.90;;
20073;SDS011;10197;54.282;10.078;2022-07-06T12:38:25;2.15;;;0.90;;
20073;SDS011;10197;54.282;10.078;2022-07-06T12:40:54;3.58;;;0.90;;
20073;SDS011;10197;54.282;10.078;2022-07-06T12:43:37;2.30;;;1.00;;
20073;SDS011;10197;54.282;10.078;2022-07-06T12:46:25;2.25;;;0.80;;
20073;SDS011;10197;54.282;10.078;2022-07-06T12:48:53;2.78;;;0.90;;
20073;SDS011;10197;54.282;10.078;2022-07-06T12:51:20;4.40;;;1.00;;
20073;SDS011;10197;54.282;10.078;2022-07-06T12:53:49;3.45;;;0.80;;
20073;SDS011;10197;54.282;10.078;2022-07-06T12:56:16;4.88;;;0.88;;
20073;SDS011;10197;54.282;10.078;2022-07-06T12:58:54;4.00;;;0.88;;
20073;SDS011;10197;54.282;10.078;2022-07-06T13:01:25;2.58;;;1.00;;
20073;SDS011;10197;54.282;10.078;2022-07-06T13:03:56;2.15;;;0.70;;
20073;SDS011;10197;54.282;10.078;2022-07-06T13:06:27;3.28;;;0.80;;
20073;SDS011;10197;54.282;10.078;2022-07-06T13:08:57;2.42;;;0.88;;
20073;SDS011;10197;54.282;10.078;2022-07-06T13:11:24;6.88;;;0.90;;
20073;SDS011;10197;54.282;10.078;2022-07-06T13:13:51;2.05;;;0.90;;
20073;SDS011;10197;54.282;10.078;2022-07-06T13:16:18;4.43;;;0.70;;
20073;SDS011;10197;54.282;10.078;2022-07-06T13:18:47;3.28;;;0.80;;
20073;SDS011;10197;54.282;10.078;2022-07-06T13:21:14;3.35;;;0.73;;
20073;SDS011;10197;54.282;10.078;2022-07-06T13:23:41;2.67;;;0.77;;
20073;SDS011;10197;54.282;10.078;2022-07-06T13:26:09;4.38;;;1.08;;
20073;SDS011;10197;54.282;10.078;2022-07-06T13:28:36;4.60;;;0.70;;
20073;SDS011;10197;54.282;10.078;2022-07-06T13:31:03;3.47;;;0.80;;
20073;SDS011;10197;54.282;10.078;2022-07-06T13:33:30;2.72;;;1.20;;
20073;SDS011;10197;54.282;10.078;2022-07-06T13:35:56;1.38;;;0.68;;
20073;SDS011;10197;54.282;10.078;2022-07-06T13:38:23;4.00;;;0.93;;
20073;SDS011;10197;54.282;10.078;2022-07-06T13:40:50;5.32;;;0.70;;
20073;SDS011;10197;54.282;10.078;2022-07-06T13:43:18;3.40;;;0.70;;
20073;SDS011;10197;54.282;10.078;2022-07-06T13:45:45;4.60;;;1.60;;
20073;SDS011;10197;54.282;10.078;2022-07-06T13:48:12;4.15;;;1.00;;
20073;SDS011;10197;54.282;10.078;2022-07-06T13:50:39;5.93;;;1.10;;
20073;SDS011;10197;54.282;10.078;2022-07-06T13:53:06;1.02;;;0.57;;
20073;SDS011;10197;54.282;10.078;2022-07-06T13:55:33;1.50;;;0.70;;
20073;SDS011;10197;54.282;10.078;2022-07-06T13:58:00;4.03;;;0.60;;
20073;SDS011;10197;54.282;10.078;2022-07-06T14:00:29;2.55;;;0.70;;
20073;SDS011;10197;54.282;10.078;2022-07-06T14:02:58;2.55;;;0.70;;
20073;SDS011;10197;54.282;10.078;2022-07-06T14:05:28;2.42;;;0.68;;
20073;SDS011;10197;54.282;10.078;2022-07-06T14:07:55;2.40;;;0.85;;
20073;SDS011;10197;54.282;10.078;2022-07-06T14:10:22;2.33;;;0.90;;
20073;SDS011;10197;54.282;10.078;2022-07-06T14:12:49;2.28;;;0.80;;
20073;SDS011;10197;54.282;10.078;2022-07-06T14:15:16;2.00;;;0.85;;
20073;SDS011;10197;54.282;10.078;2022-07-06T14:17:48;4.20;;;0.80;;
20073;SDS011;10197;54.282;10.078;2022-07-06T14:20:15;3.45;;;0.80;;
20073;SDS011;10197;54.282;10.078;2022-07-06T14:22:43;3.38;;;1.02;;
20073;SDS011;10197;54.282;10.078;2022-07-06T14:25:10;3.17;;;0.75;;
20073;SDS011;10197;54.282;10.078;2022-07-06T14:27:37;4.65;;;0.80;;
20073;SDS011;10197;54.282;10.078;2022-07-06T14:30:06;2.53;;;0.77;;
20073;SDS011;10197;54.282;10.078;2022-07-06T14:32:33;3.70;;;1.05;;
20073;SDS011;10197;54.282;10.078;2022-07-06T14:35:02;3.58;;;0.90;;
20073;SDS011;10197;54.282;10.078;2022-07-06T14:37:30;4.95;;;1.38;;
20073;SDS011;10197;54.282;10.078;2022-07-06T14:39:57;2.55;;;0.70;;
20073;SDS011;10197;54.282;10.078;2022-07-06T14:42:23;2.92;;;0.90;;
20073;SDS011;10197;54.282;10.078;2022-07-06T14:44:51;3.30;;;0.82;;
20073;SDS011;10197;54.282;10.078;2022-07-06T14:47:18;6.95;;;0.80;;